Stevensville, MI (49127)

9:19 AM EDT on August 31, 2015 (GMT -0400)
Lakeshore - Stevensville | | Change Station
CLOSE
Current Station
Personal Weather Station
Location: Stevensville, MI
Elevation: 640 ft
Nearby Weather Stations

Elev 640 ft 42.03 °N, 86.50 °W | Updated 2 minutes ago

Mostly Cloudy
Mostly Cloudy
65.5 °F
Feels Like 65.5 °F
N
0.9
Wind Variable Wind from North

Today
High -- | Low -- °F
--% Chance of Precip.
Yesterday
High -- | Low -- °F
Precip. -- in
7:10 AM 8:21 PM
Waning Gibbous, 95% visible
Pressure 30.08 in
Visibility 3.0 miles
Clouds Overcast 2300 ft
Dew Point 64 °F
Humidity 94%
Rainfall Not available.
Snow Depth Not available.
UV 0 out of 12
Pollen 10.40 out of 12
Air Quality Not available.
Flu Activity Not available.
METAR KBEH 311253Z AUTO 00000KT 3SM BR OVC023 17/16 A3008 RMK AO2 SLP184 T01720161
Pressure 30.08 in
Visibility 3.0 miles
Clouds Overcast 2300 ft
Dew Point 64 °F
Humidity 94%
Rainfall Not available.
Snow Depth Not available.
UV 0 out of 12
Pollen 10.40 out of 12
Air Quality Not available.
Flu Activity Not available.
METAR KBEH 311253Z AUTO 00000KT 3SM BR OVC023 17/16 A3008 RMK AO2 SLP184 T01720161

10-Day Weather Forecast

×

Almanac

Astronomy

Aug. 31, 2015 Rise Set
Actual Time
Civil Twilight
Nautical Twilight
Astronomical Twilight
Moon
Length of Visible Light
Length of Day
Tomorrow will be .
, % of the Moon is Illuminated

Today's Extremes

State Highs State Lows

Community

WunderPhotos

Upload Photos

1,851,226 photos uploaded!

WunderBlogs® & News

Nearby

Air Quality

  Air Quality AQ Index Pollutant
Not available.

Snow Depth

Station Depth Elevation

Earthquake Activity

City Distance Mag. Time & Date
Minimum magnitude displayed is 2.5.

Coastal Water Temperatures

Place Temperature

Stations

Nearby Weather Stations

Station Location Temp. Windchill Dew Point Humidity Wind Precip. Elev Updated Type